sensor_id;sensor_type;location;lat;lon;timestamp;temperature;humidity
3564;DHT22;1796;52.388;13.096;2023-07-13T00:00:39;18.00;99.90
3564;DHT22;1796;52.388;13.096;2023-07-13T00:03:06;18.00;99.90
3564;DHT22;1796;52.388;13.096;2023-07-13T00:05:33;18.00;99.90
3564;DHT22;1796;52.388;13.096;2023-07-13T00:08:00;18.00;99.90
3564;DHT22;1796;52.388;13.096;2023-07-13T00:10:28;18.00;99.90
3564;DHT22;1796;52.388;13.096;2023-07-13T00:12:55;17.90;99.90
3564;DHT22;1796;52.388;13.096;2023-07-13T00:15:27;17.90;99.90
3564;DHT22;1796;52.388;13.096;2023-07-13T00:17:55;17.80;99.90
3564;DHT22;1796;52.388;13.096;2023-07-13T00:20:30;17.80;99.90
3564;DHT22;1796;52.388;13.096;2023-07-13T00:22:57;17.80;99.90
3564;DHT22;1796;52.388;13.096;2023-07-13T00:25:24;17.70;99.90
3564;DHT22;1796;52.388;13.096;2023-07-13T00:27:55;17.70;99.90
3564;DHT22;1796;52.388;13.096;2023-07-13T00:30:24;17.60;99.90
3564;DHT22;1796;52.388;13.096;2023-07-13T00:32:51;17.60;99.90
3564;DHT22;1796;52.388;13.096;2023-07-13T00:35:18;17.50;99.90
3564;DHT22;1796;52.388;13.096;2023-07-13T00:37:45;17.50;99.90
3564;DHT22;1796;52.388;13.096;2023-07-13T00:40:13;17.40;99.90
3564;DHT22;1796;52.388;13.096;2023-07-13T00:42:41;17.40;99.90
3564;DHT22;1796;52.388;13.096;2023-07-13T00:48:10;17.30;99.90
3564;DHT22;1796;52.388;13.096;2023-07-13T00:50:37;17.10;99.90
3564;DHT22;1796;52.388;13.096;2023-07-13T00:53:05;16.90;99.90
3564;DHT22;1796;52.388;13.096;2023-07-13T00:55:32;16.80;99.90
3564;DHT22;1796;52.388;13.096;2023-07-13T00:57:59;16.70;99.90
3564;DHT22;1796;52.388;13.096;2023-07-13T01:00:27;16.60;99.90
3564;DHT22;1796;52.388;13.096;2023-07-13T01:02:56;16.50;99.90
3564;DHT22;1796;52.388;13.096;2023-07-13T01:05:25;16.40;99.90
3564;DHT22;1796;52.388;13.096;2023-07-13T01:07:52;16.50;99.90
3564;DHT22;1796;52.388;13.096;2023-07-13T01:10:22;16.50;99.90
3564;DHT22;1796;52.388;13.096;2023-07-13T01:12:49;16.50;99.90
3564;DHT22;1796;52.388;13.096;2023-07-13T01:15:36;16.40;99.90
3564;DHT22;1796;52.388;13.096;2023-07-13T01:18:05;16.40;99.90
3564;DHT22;1796;52.388;13.096;2023-07-13T01:20:33;16.30;99.90
3564;DHT22;1796;52.388;13.096;2023-07-13T01:23:05;16.20;99.90
3564;DHT22;1796;52.388;13.096;2023-07-13T01:25:33;16.10;99.90
3564;DHT22;1796;52.388;13.096;2023-07-13T01:28:01;16.00;99.90
3564;DHT22;1796;52.388;13.096;2023-07-13T01:30:28;15.90;99.90
3564;DHT22;1796;52.388;13.096;2023-07-13T01:32:55;15.80;99.90
3564;DHT22;1796;52.388;13.096;2023-07-13T01:35:22;15.80;99.90
3564;DHT22;1796;52.388;13.096;2023-07-13T01:37:50;15.70;99.90
3564;DHT22;1796;52.388;13.096;2023-07-13T01:40:20;15.70;99.90
3564;DHT22;1796;52.388;13.096;2023-07-13T01:42:47;15.70;99.90
3564;DHT22;1796;52.388;13.096;2023-07-13T01:45:14;15.80;99.90
3564;DHT22;1796;52.388;13.096;2023-07-13T01:47:40;15.80;99.90
3564;DHT22;1796;52.388;13.096;2023-07-13T01:50:08;15.90;99.90
3564;DHT22;1796;52.388;13.096;2023-07-13T01:52:35;15.80;99.90
3564;DHT22;1796;52.388;13.096;2023-07-13T01:55:03;15.80;99.90
3564;DHT22;1796;52.388;13.096;2023-07-13T01:57:31;15.80;99.90
3564;DHT22;1796;52.388;13.096;2023-07-13T01:59:58;15.70;99.90
3564;DHT22;1796;52.388;13.096;2023-07-13T02:02:25;15.60;99.90
3564;DHT22;1796;52.388;13.096;2023-07-13T02:04:52;15.50;99.90
3564;DHT22;1796;52.388;13.096;2023-07-13T02:07:21;15.40;99.90
3564;DHT22;1796;52.388;13.096;2023-07-13T02:09:48;15.40;99.90
3564;DHT22;1796;52.388;13.096;2023-07-13T02:12:14;15.30;99.90
3564;DHT22;1796;52.388;13.096;2023-07-13T02:14:43;15.30;99.90
3564;DHT22;1796;52.388;13.096;2023-07-13T02:17:10;15.20;99.90
3564;DHT22;1796;52.388;13.096;2023-07-13T02:19:37;15.20;99.90
3564;DHT22;1796;52.388;13.096;2023-07-13T02:22:04;15.10;99.90
3564;DHT22;1796;52.388;13.096;2023-07-13T02:24:32;15.10;99.90
3564;DHT22;1796;52.388;13.096;2023-07-13T02:26:59;15.20;99.90
3564;DHT22;1796;52.388;13.096;2023-07-13T02:29:26;15.20;99.90
3564;DHT22;1796;52.388;13.096;2023-07-13T02:31:54;15.20;99.90
3564;DHT22;1796;52.388;13.096;2023-07-13T02:34:21;15.20;99.90
3564;DHT22;1796;52.388;13.096;2023-07-13T02:36:48;15.20;99.90
3564;DHT22;1796;52.388;13.096;2023-07-13T02:39:15;15.10;99.90
3564;DHT22;1796;52.388;13.096;2023-07-13T02:41:42;15.00;99.90
3564;DHT22;1796;52.388;13.096;2023-07-13T02:44:09;15.10;99.90
3564;DHT22;1796;52.388;13.096;2023-07-13T02:46:37;15.00;99.90
3564;DHT22;1796;52.388;13.096;2023-07-13T02:49:05;14.90;99.90
3564;DHT22;1796;52.388;13.096;2023-07-13T02:51:32;14.80;99.90
3564;DHT22;1796;52.388;13.096;2023-07-13T02:54:00;14.80;99.90
3564;DHT22;1796;52.388;13.096;2023-07-13T02:56:28;14.70;99.90
3564;DHT22;1796;52.388;13.096;2023-07-13T02:58:56;14.70;99.90
3564;DHT22;1796;52.388;13.096;2023-07-13T03:01:23;14.70;99.90
3564;DHT22;1796;52.388;13.096;2023-07-13T03:03:51;14.80;99.90
3564;DHT22;1796;52.388;13.096;2023-07-13T03:06:20;14.80;99.90
3564;DHT22;1796;52.388;13.096;2023-07-13T03:08:48;14.90;99.90
3564;DHT22;1796;52.388;13.096;2023-07-13T03:11:19;15.00;99.90
3564;DHT22;1796;52.388;13.096;2023-07-13T03:13:46;15.10;99.90
3564;DHT22;1796;52.388;13.096;2023-07-13T03:16:14;15.10;99.90
3564;DHT22;1796;52.388;13.096;2023-07-13T03:18:42;15.10;99.90
3564;DHT22;1796;52.388;13.096;2023-07-13T03:21:10;15.10;99.90
3564;DHT22;1796;52.388;13.096;2023-07-13T03:23:38;15.30;99.90
3564;DHT22;1796;52.388;13.096;2023-07-13T03:26:07;15.40;99.90
3564;DHT22;1796;52.388;13.096;2023-07-13T03:28:35;15.50;99.90
3564;DHT22;1796;52.388;13.096;2023-07-13T03:31:03;15.60;99.90
3564;DHT22;1796;52.388;13.096;2023-07-13T03:33:31;15.70;99.90
3564;DHT22;1796;52.388;13.096;2023-07-13T03:35:58;15.80;99.90
3564;DHT22;1796;52.388;13.096;2023-07-13T03:38:26;15.90;99.90
3564;DHT22;1796;52.388;13.096;2023-07-13T03:40:54;16.00;99.90
3564;DHT22;1796;52.388;13.096;2023-07-13T03:43:21;16.00;99.90
3564;DHT22;1796;52.388;13.096;2023-07-13T03:45:48;16.10;99.90
3564;DHT22;1796;52.388;13.096;2023-07-13T03:48:15;16.30;99.90
3564;DHT22;1796;52.388;13.096;2023-07-13T03:50:42;16.40;99.90
3564;DHT22;1796;52.388;13.096;2023-07-13T03:53:09;16.70;99.90
3564;DHT22;1796;52.388;13.096;2023-07-13T03:55:36;16.90;99.90
3564;DHT22;1796;52.388;13.096;2023-07-13T03:58:29;17.20;99.90
3564;DHT22;1796;52.388;13.096;2023-07-13T04:00:58;17.20;99.90
3564;DHT22;1796;52.388;13.096;2023-07-13T04:03:25;17.10;99.90
3564;DHT22;1796;52.388;13.096;2023-07-13T04:05:54;17.10;99.90
3564;DHT22;1796;52.388;13.096;2023-07-13T04:08:26;17.10;99.90
3564;DHT22;1796;52.388;13.096;2023-07-13T04:10:53;17.10;99.90
3564;DHT22;1796;52.388;13.096;2023-07-13T04:13:20;17.30;99.90
3564;DHT22;1796;52.388;13.096;2023-07-13T04:15:48;17.50;99.90
3564;DHT22;1796;52.388;13.096;2023-07-13T04:18:15;17.80;99.90
3564;DHT22;1796;52.388;13.096;2023-07-13T04:20:42;18.40;99.90
3564;DHT22;1796;52.388;13.096;2023-07-13T04:23:09;19.10;99.90
3564;DHT22;1796;52.388;13.096;2023-07-13T04:25:36;19.70;99.90
3564;DHT22;1796;52.388;13.096;2023-07-13T04:28:03;20.30;99.90
3564;DHT22;1796;52.388;13.096;2023-07-13T04:30:31;20.90;99.90
3564;DHT22;1796;52.388;13.096;2023-07-13T04:32:59;21.20;99.90
3564;DHT22;1796;52.388;13.096;2023-07-13T04:35:26;21.50;99.90
3564;DHT22;1796;52.388;13.096;2023-07-13T04:37:53;21.90;99.90
3564;DHT22;1796;52.388;13.096;2023-07-13T04:40:20;22.30;99.90
3564;DHT22;1796;52.388;13.096;2023-07-13T04:42:47;22.70;99.90
3564;DHT22;1796;52.388;13.096;2023-07-13T04:45:14;23.00;99.90
3564;DHT22;1796;52.388;13.096;2023-07-13T04:47:42;23.10;99.90
3564;DHT22;1796;52.388;13.096;2023-07-13T04:50:12;23.10;99.90
3564;DHT22;1796;52.388;13.096;2023-07-13T04:52:41;22.90;99.90
3564;DHT22;1796;52.388;13.096;2023-07-13T04:55:08;23.10;99.90
3564;DHT22;1796;52.388;13.096;2023-07-13T04:57:35;23.30;99.90
3564;DHT22;1796;52.388;13.096;2023-07-13T05:00:02;23.50;99.90
3564;DHT22;1796;52.388;13.096;2023-07-13T05:02:32;23.80;99.90
3564;DHT22;1796;52.388;13.096;2023-07-13T05:05:00;24.10;99.90
3564;DHT22;1796;52.388;13.096;2023-07-13T05:07:28;24.10;99.90
3564;DHT22;1796;52.388;13.096;2023-07-13T05:09:55;23.90;99.90
3564;DHT22;1796;52.388;13.096;2023-07-13T05:12:22;24.00;99.90
3564;DHT22;1796;52.388;13.096;2023-07-13T05:14:49;24.20;99.90
3564;DHT22;1796;52.388;13.096;2023-07-13T05:17:16;24.20;99.90
3564;DHT22;1796;52.388;13.096;2023-07-13T05:19:43;24.50;99.90
3564;DHT22;1796;52.388;13.096;2023-07-13T05:22:10;24.30;99.90
3564;DHT22;1796;52.388;13.096;2023-07-13T05:24:38;24.20;99.90
3564;DHT22;1796;52.388;13.096;2023-07-13T05:27:05;24.40;99.90
3564;DHT22;1796;52.388;13.096;2023-07-13T05:29:32;25.00;99.90
3564;DHT22;1796;52.388;13.096;2023-07-13T05:31:59;25.20;99.90
3564;DHT22;1796;52.388;13.096;2023-07-13T05:34:26;25.70;99.90
3564;DHT22;1796;52.388;13.096;2023-07-13T05:36:53;25.80;99.90
3564;DHT22;1796;52.388;13.096;2023-07-13T05:39:20;25.60;99.90
3564;DHT22;1796;52.388;13.096;2023-07-13T05:41:48;25.50;99.90
3564;DHT22;1796;52.388;13.096;2023-07-13T05:44:15;25.90;99.90
3564;DHT22;1796;52.388;13.096;2023-07-13T05:46:42;26.20;99.90
3564;DHT22;1796;52.388;13.096;2023-07-13T05:49:09;26.40;99.90
3564;DHT22;1796;52.388;13.096;2023-07-13T05:51:36;26.50;99.90
3564;DHT22;1796;52.388;13.096;2023-07-13T05:54:03;26.60;99.90
3564;DHT22;1796;52.388;13.096;2023-07-13T05:56:33;27.10;99.90
3564;DHT22;1796;52.388;13.096;2023-07-13T05:59:01;27.50;99.90
3564;DHT22;1796;52.388;13.096;2023-07-13T06:01:30;27.40;99.90
3564;DHT22;1796;52.388;13.096;2023-07-13T06:03:57;27.40;99.90
3564;DHT22;1796;52.388;13.096;2023-07-13T06:06:24;27.00;99.90
3564;DHT22;1796;52.388;13.096;2023-07-13T06:08:51;26.20;99.90
3564;DHT22;1796;52.388;13.096;2023-07-13T06:11:20;25.70;99.90
3564;DHT22;1796;52.388;13.096;2023-07-13T06:13:47;25.60;99.90
3564;DHT22;1796;52.388;13.096;2023-07-13T06:16:15;25.40;99.90
3564;DHT22;1796;52.388;13.096;2023-07-13T06:18:43;25.80;99.90
3564;DHT22;1796;52.388;13.096;2023-07-13T06:21:12;26.20;99.90
3564;DHT22;1796;52.388;13.096;2023-07-13T06:23:39;26.90;99.90
3564;DHT22;1796;52.388;13.096;2023-07-13T06:26:07;27.40;99.90
3564;DHT22;1796;52.388;13.096;2023-07-13T06:28:35;27.20;99.90
3564;DHT22;1796;52.388;13.096;2023-07-13T06:31:04;27.40;99.90
3564;DHT22;1796;52.388;13.096;2023-07-13T06:33:32;27.50;99.90
3564;DHT22;1796;52.388;13.096;2023-07-13T06:35:59;27.60;99.90
3564;DHT22;1796;52.388;13.096;2023-07-13T06:38:26;27.60;99.90
3564;DHT22;1796;52.388;13.096;2023-07-13T06:40:53;27.70;99.90
3564;DHT22;1796;52.388;13.096;2023-07-13T06:43:20;28.10;99.90
3564;DHT22;1796;52.388;13.096;2023-07-13T06:45:48;28.40;99.90
3564;DHT22;1796;52.388;13.096;2023-07-13T06:48:16;27.90;99.90
3564;DHT22;1796;52.388;13.096;2023-07-13T06:50:45;27.80;99.90
3564;DHT22;1796;52.388;13.096;2023-07-13T06:53:13;27.80;99.90
3564;DHT22;1796;52.388;13.096;2023-07-13T06:55:40;28.10;99.90
3564;DHT22;1796;52.388;13.096;2023-07-13T06:58:07;28.40;99.90
3564;DHT22;1796;52.388;13.096;2023-07-13T07:00:34;28.20;99.90
3564;DHT22;1796;52.388;13.096;2023-07-13T07:03:01;28.30;99.90
3564;DHT22;1796;52.388;13.096;2023-07-13T07:05:28;28.80;99.90
3564;DHT22;1796;52.388;13.096;2023-07-13T07:07:56;28.80;99.90
3564;DHT22;1796;52.388;13.096;2023-07-13T07:10:23;29.20;99.90
3564;DHT22;1796;52.388;13.096;2023-07-13T07:12:50;30.30;99.90
3564;DHT22;1796;52.388;13.096;2023-07-13T07:15:17;30.50;99.90
3564;DHT22;1796;52.388;13.096;2023-07-13T07:17:45;30.40;99.90
3564;DHT22;1796;52.388;13.096;2023-07-13T07:20:12;30.50;99.90
3564;DHT22;1796;52.388;13.096;2023-07-13T07:22:39;30.50;99.90
3564;DHT22;1796;52.388;13.096;2023-07-13T07:25:08;30.20;99.90
3564;DHT22;1796;52.388;13.096;2023-07-13T07:27:34;31.00;99.90
3564;DHT22;1796;52.388;13.096;2023-07-13T07:30:01;31.40;99.90
3564;DHT22;1796;52.388;13.096;2023-07-13T07:32:29;32.20;99.90
3564;DHT22;1796;52.388;13.096;2023-07-13T07:34:57;31.40;99.90
3564;DHT22;1796;52.388;13.096;2023-07-13T07:37:24;31.30;99.90
3564;DHT22;1796;52.388;13.096;2023-07-13T07:39:51;31.20;99.90
3564;DHT22;1796;52.388;13.096;2023-07-13T07:42:19;30.00;99.90
3564;DHT22;1796;52.388;13.096;2023-07-13T07:44:46;30.30;99.90
3564;DHT22;1796;52.388;13.096;2023-07-13T07:47:13;31.00;99.90
3564;DHT22;1796;52.388;13.096;2023-07-13T07:49:40;30.90;99.90
3564;DHT22;1796;52.388;13.096;2023-07-13T07:52:08;31.40;99.90
3564;DHT22;1796;52.388;13.096;2023-07-13T07:54:35;30.50;99.90
3564;DHT22;1796;52.388;13.096;2023-07-13T07:57:02;30.10;99.90
3564;DHT22;1796;52.388;13.096;2023-07-13T07:59:30;29.40;99.90
3564;DHT22;1796;52.388;13.096;2023-07-13T08:01:57;28.60;99.90
3564;DHT22;1796;52.388;13.096;2023-07-13T08:04:24;28.30;99.90
3564;DHT22;1796;52.388;13.096;2023-07-13T08:06:51;27.90;99.90
3564;DHT22;1796;52.388;13.096;2023-07-13T08:09:18;27.90;99.90
3564;DHT22;1796;52.388;13.096;2023-07-13T08:11:45;28.10;99.90
3564;DHT22;1796;52.388;13.096;2023-07-13T08:14:12;28.00;99.90
3564;DHT22;1796;52.388;13.096;2023-07-13T08:16:40;28.20;99.90
3564;DHT22;1796;52.388;13.096;2023-07-13T08:19:07;28.30;99.90
3564;DHT22;1796;52.388;13.096;2023-07-13T08:21:34;29.50;99.90
3564;DHT22;1796;52.388;13.096;2023-07-13T08:24:02;29.80;99.90
3564;DHT22;1796;52.388;13.096;2023-07-13T08:26:29;30.50;99.90
3564;DHT22;1796;52.388;13.096;2023-07-13T08:28:56;31.00;99.90
3564;DHT22;1796;52.388;13.096;2023-07-13T08:31:24;31.40;99.90
3564;DHT22;1796;52.388;13.096;2023-07-13T08:33:52;31.30;99.90
3564;DHT22;1796;52.388;13.096;2023-07-13T08:36:19;31.90;99.90
3564;DHT22;1796;52.388;13.096;2023-07-13T08:38:45;32.40;99.90
3564;DHT22;1796;52.388;13.096;2023-07-13T08:41:14;32.10;99.90
3564;DHT22;1796;52.388;13.096;2023-07-13T08:43:43;32.10;99.90
3564;DHT22;1796;52.388;13.096;2023-07-13T08:46:14;31.80;99.90
3564;DHT22;1796;52.388;13.096;2023-07-13T08:48:45;31.70;99.90
3564;DHT22;1796;52.388;13.096;2023-07-13T08:51:26;31.00;99.90
3564;DHT22;1796;52.388;13.096;2023-07-13T08:53:57;31.00;99.90
3564;DHT22;1796;52.388;13.096;2023-07-13T08:56:28;30.50;99.90
3564;DHT22;1796;52.388;13.096;2023-07-13T08:58:57;30.30;99.90
3564;DHT22;1796;52.388;13.096;2023-07-13T09:01:31;30.00;99.90
3564;DHT22;1796;52.388;13.096;2023-07-13T09:04:05;29.50;99.90
3564;DHT22;1796;52.388;13.096;2023-07-13T09:06:42;29.10;99.90
3564;DHT22;1796;52.388;13.096;2023-07-13T09:09:20;28.50;99.90
3564;DHT22;1796;52.388;13.096;2023-07-13T09:11:58;27.70;99.90
3564;DHT22;1796;52.388;13.096;2023-07-13T09:14:34;27.30;99.90
3564;DHT22;1796;52.388;13.096;2023-07-13T09:17:05;26.80;99.90
3564;DHT22;1796;52.388;13.096;2023-07-13T09:19:35;26.10;99.90
3564;DHT22;1796;52.388;13.096;2023-07-13T09:22:05;26.20;99.90
3564;DHT22;1796;52.388;13.096;2023-07-13T09:24:38;26.60;99.90
3564;DHT22;1796;52.388;13.096;2023-07-13T09:27:17;26.70;99.90
3564;DHT22;1796;52.388;13.096;2023-07-13T09:29:50;26.80;99.90
3564;DHT22;1796;52.388;13.096;2023-07-13T09:32:18;26.80;99.90
3564;DHT22;1796;52.388;13.096;2023-07-13T09:34:50;26.40;99.90
3564;DHT22;1796;52.388;13.096;2023-07-13T09:37:20;25.90;99.90
3564;DHT22;1796;52.388;13.096;2023-07-13T09:39:49;25.60;99.90
3564;DHT22;1796;52.388;13.096;2023-07-13T09:42:20;25.70;99.90
3564;DHT22;1796;52.388;13.096;2023-07-13T09:44:53;26.30;99.90
3564;DHT22;1796;52.388;13.096;2023-07-13T09:47:22;26.10;99.90
3564;DHT22;1796;52.388;13.096;2023-07-13T09:49:55;26.00;99.90
3564;DHT22;1796;52.388;13.096;2023-07-13T09:52:26;26.00;99.90
3564;DHT22;1796;52.388;13.096;2023-07-13T09:54:54;26.50;99.90
3564;DHT22;1796;52.388;13.096;2023-07-13T09:57:26;26.80;99.90
3564;DHT22;1796;52.388;13.096;2023-07-13T09:59:55;26.70;99.90
3564;DHT22;1796;52.388;13.096;2023-07-13T10:02:27;26.30;99.90
3564;DHT22;1796;52.388;13.096;2023-07-13T10:04:59;26.10;99.90
3564;DHT22;1796;52.388;13.096;2023-07-13T10:07:27;26.10;99.90
3564;DHT22;1796;52.388;13.096;2023-07-13T10:09:55;25.90;99.90
3564;DHT22;1796;52.388;13.096;2023-07-13T10:12:23;25.80;99.90
3564;DHT22;1796;52.388;13.096;2023-07-13T10:14:52;25.70;99.90
3564;DHT22;1796;52.388;13.096;2023-07-13T10:17:28;25.90;99.90
3564;DHT22;1796;52.388;13.096;2023-07-13T10:19:59;26.00;99.90
3564;DHT22;1796;52.388;13.096;2023-07-13T10:22:38;26.30;99.90
3564;DHT22;1796;52.388;13.096;2023-07-13T10:25:15;26.60;99.90
3564;DHT22;1796;52.388;13.096;2023-07-13T10:27:44;27.00;99.90
3564;DHT22;1796;52.388;13.096;2023-07-13T10:30:14;27.30;99.90
3564;DHT22;1796;52.388;13.096;2023-07-13T10:32:44;27.40;99.90
3564;DHT22;1796;52.388;13.096;2023-07-13T10:35:13;27.20;99.90
3564;DHT22;1796;52.388;13.096;2023-07-13T10:37:48;27.10;99.90
3564;DHT22;1796;52.388;13.096;2023-07-13T10:40:20;26.90;99.90
3564;DHT22;1796;52.388;13.096;2023-07-13T10:42:50;26.50;99.90
3564;DHT22;1796;52.388;13.096;2023-07-13T10:45:20;26.40;99.90
3564;DHT22;1796;52.388;13.096;2023-07-13T10:47:47;26.30;99.90
3564;DHT22;1796;52.388;13.096;2023-07-13T10:50:19;26.40;99.90
3564;DHT22;1796;52.388;13.096;2023-07-13T10:52:49;26.20;99.90
3564;DHT22;1796;52.388;13.096;2023-07-13T10:55:37;26.10;99.90
3564;DHT22;1796;52.388;13.096;2023-07-13T10:58:13;26.30;99.90
3564;DHT22;1796;52.388;13.096;2023-07-13T11:00:47;26.50;99.90
3564;DHT22;1796;52.388;13.096;2023-07-13T11:03:16;26.60;99.90
3564;DHT22;1796;52.388;13.096;2023-07-13T11:05:44;26.80;99.90
3564;DHT22;1796;52.388;13.096;2023-07-13T11:08:20;26.80;99.90
3564;DHT22;1796;52.388;13.096;2023-07-13T11:10:53;26.50;99.90
3564;DHT22;1796;52.388;13.096;2023-07-13T11:13:56;26.30;99.90
3564;DHT22;1796;52.388;13.096;2023-07-13T11:16:43;26.50;99.90
3564;DHT22;1796;52.388;13.096;2023-07-13T11:19:41;26.40;99.90
3564;DHT22;1796;52.388;13.096;2023-07-13T11:22:21;26.30;99.90
3564;DHT22;1796;52.388;13.096;2023-07-13T11:24:57;26.30;99.90
3564;DHT22;1796;52.388;13.096;2023-07-13T11:27:38;26.50;99.90
3564;DHT22;1796;52.388;13.096;2023-07-13T11:30:31;26.70;99.90
3564;DHT22;1796;52.388;13.096;2023-07-13T11:33:11;26.90;99.90
3564;DHT22;1796;52.388;13.096;2023-07-13T11:35:48;26.90;99.90
3564;DHT22;1796;52.388;13.096;2023-07-13T11:38:29;26.70;99.90
3564;DHT22;1796;52.388;13.096;2023-07-13T11:41:01;26.80;99.90
3564;DHT22;1796;52.388;13.096;2023-07-13T11:43:39;26.80;99.90
3564;DHT22;1796;52.388;13.096;2023-07-13T11:46:14;26.70;99.90
3564;DHT22;1796;52.388;13.096;2023-07-13T11:48:41;26.60;99.90
3564;DHT22;1796;52.388;13.096;2023-07-13T11:51:18;26.60;99.90
3564;DHT22;1796;52.388;13.096;2023-07-13T11:53:48;26.70;99.90
3564;DHT22;1796;52.388;13.096;2023-07-13T11:56:19;26.80;99.90
3564;DHT22;1796;52.388;13.096;2023-07-13T11:58:49;26.80;99.90
3564;DHT22;1796;52.388;13.096;2023-07-13T12:01:27;26.60;99.90
3564;DHT22;1796;52.388;13.096;2023-07-13T12:03:57;26.60;99.90
3564;DHT22;1796;52.388;13.096;2023-07-13T12:06:32;26.40;99.90
3564;DHT22;1796;52.388;13.096;2023-07-13T12:09:10;26.30;99.90
3564;DHT22;1796;52.388;13.096;2023-07-13T12:11:43;26.50;99.90
3564;DHT22;1796;52.388;13.096;2023-07-13T12:14:14;26.50;99.90
3564;DHT22;1796;52.388;13.096;2023-07-13T12:16:43;26.40;99.90
3564;DHT22;1796;52.388;13.096;2023-07-13T12:19:18;26.30;99.90
3564;DHT22;1796;52.388;13.096;2023-07-13T12:21:49;26.30;99.90
3564;DHT22;1796;52.388;13.096;2023-07-13T12:24:18;26.50;99.90
3564;DHT22;1796;52.388;13.096;2023-07-13T12:26:52;26.70;99.90
3564;DHT22;1796;52.388;13.096;2023-07-13T12:29:21;26.70;99.90
3564;DHT22;1796;52.388;13.096;2023-07-13T12:31:51;26.60;99.90
3564;DHT22;1796;52.388;13.096;2023-07-13T12:34:23;26.20;99.90
3564;DHT22;1796;52.388;13.096;2023-07-13T12:36:52;26.20;99.90
3564;DHT22;1796;52.388;13.096;2023-07-13T12:39:21;26.20;99.90
3564;DHT22;1796;52.388;13.096;2023-07-13T12:41:51;26.20;99.90
3564;DHT22;1796;52.388;13.096;2023-07-13T12:44:24;26.20;99.90
3564;DHT22;1796;52.388;13.096;2023-07-13T12:46:54;26.20;99.90
3564;DHT22;1796;52.388;13.096;2023-07-13T12:49:26;26.30;99.90
3564;DHT22;1796;52.388;13.096;2023-07-13T12:51:56;26.40;99.90
3564;DHT22;1796;52.388;13.096;2023-07-13T12:54:25;26.60;99.90
3564;DHT22;1796;52.388;13.096;2023-07-13T12:56:55;26.50;99.90
3564;DHT22;1796;52.388;13.096;2023-07-13T12:59:23;26.90;99.90
3564;DHT22;1796;52.388;13.096;2023-07-13T13:01:51;26.80;99.90
3564;DHT22;1796;52.388;13.096;2023-07-13T13:04:20;26.50;99.90
3564;DHT22;1796;52.388;13.096;2023-07-13T13:06:47;26.40;99.90
3564;DHT22;1796;52.388;13.096;2023-07-13T13:09:16;26.40;99.90
3564;DHT22;1796;52.388;13.096;2023-07-13T13:11:44;26.60;99.90
3564;DHT22;1796;52.388;13.096;2023-07-13T13:14:12;26.90;99.90
3564;DHT22;1796;52.388;13.096;2023-07-13T13:16:46;26.90;99.90
3564;DHT22;1796;52.388;13.096;2023-07-13T13:19:16;27.20;99.90
3564;DHT22;1796;52.388;13.096;2023-07-13T13:21:44;27.40;99.90
3564;DHT22;1796;52.388;13.096;2023-07-13T13:24:13;27.70;99.90
3564;DHT22;1796;52.388;13.096;2023-07-13T13:26:40;28.00;99.90
3564;DHT22;1796;52.388;13.096;2023-07-13T13:29:15;28.10;99.90
3564;DHT22;1796;52.388;13.096;2023-07-13T13:31:43;27.90;99.90
3564;DHT22;1796;52.388;13.096;2023-07-13T13:34:11;28.00;99.90
3564;DHT22;1796;52.388;13.096;2023-07-13T13:36:39;27.90;99.90
3564;DHT22;1796;52.388;13.096;2023-07-13T13:39:18;28.10;99.90
3564;DHT22;1796;52.388;13.096;2023-07-13T13:41:46;27.90;99.90
3564;DHT22;1796;52.388;13.096;2023-07-13T13:44:15;27.30;99.90
3564;DHT22;1796;52.388;13.096;2023-07-13T13:46:44;27.10;99.90
3564;DHT22;1796;52.388;13.096;2023-07-13T13:49:15;26.80;99.90
3564;DHT22;1796;52.388;13.096;2023-07-13T13:51:42;26.90;99.90
3564;DHT22;1796;52.388;13.096;2023-07-13T13:54:11;27.00;99.90
3564;DHT22;1796;52.388;13.096;2023-07-13T13:56:40;27.20;99.90
3564;DHT22;1796;52.388;13.096;2023-07-13T13:59:07;27.20;99.90
3564;DHT22;1796;52.388;13.096;2023-07-13T14:01:36;27.10;99.90
3564;DHT22;1796;52.388;13.096;2023-07-13T14:04:04;27.00;99.90
3564;DHT22;1796;52.388;13.096;2023-07-13T14:06:32;27.10;99.90
3564;DHT22;1796;52.388;13.096;2023-07-13T14:09:00;26.90;99.90
3564;DHT22;1796;52.388;13.096;2023-07-13T14:11:29;27.20;99.90
3564;DHT22;1796;52.388;13.096;2023-07-13T14:13:59;27.10;99.90
3564;DHT22;1796;52.388;13.096;2023-07-13T14:16:30;26.80;99.90
3564;DHT22;1796;52.388;13.096;2023-07-13T14:19:00;26.60;99.90
3564;DHT22;1796;52.388;13.096;2023-07-13T14:21:28;26.60;99.90
3564;DHT22;1796;52.388;13.096;2023-07-13T14:23:55;26.60;99.90
3564;DHT22;1796;52.388;13.096;2023-07-13T14:26:24;26.70;99.90
3564;DHT22;1796;52.388;13.096;2023-07-13T14:28:53;26.70;99.90
3564;DHT22;1796;52.388;13.096;2023-07-13T14:31:21;26.70;99.90
3564;DHT22;1796;52.388;13.096;2023-07-13T14:33:48;26.70;99.80
3564;DHT22;1796;52.388;13.096;2023-07-13T14:36:25;26.60;99.90
3564;DHT22;1796;52.388;13.096;2023-07-13T14:38:53;26.60;99.80
3564;DHT22;1796;52.388;13.096;2023-07-13T14:41:20;26.60;98.60
3564;DHT22;1796;52.388;13.096;2023-07-13T14:43:47;26.70;98.70
3564;DHT22;1796;52.388;13.096;2023-07-13T14:46:28;26.70;98.60
3564;DHT22;1796;52.388;13.096;2023-07-13T14:49:01;26.70;99.00
3564;DHT22;1796;52.388;13.096;2023-07-13T14:51:30;26.60;98.70
3564;DHT22;1796;52.388;13.096;2023-07-13T14:54:01;26.50;99.20
3564;DHT22;1796;52.388;13.096;2023-07-13T14:56:28;26.50;99.50
3564;DHT22;1796;52.388;13.096;2023-07-13T14:58:55;26.60;99.80
3564;DHT22;1796;52.388;13.096;2023-07-13T15:01:23;26.70;99.30
3564;DHT22;1796;52.388;13.096;2023-07-13T15:03:51;26.70;99.70
3564;DHT22;1796;52.388;13.096;2023-07-13T15:06:19;26.70;99.70
3564;DHT22;1796;52.388;13.096;2023-07-13T15:08:47;26.60;99.30
3564;DHT22;1796;52.388;13.096;2023-07-13T15:11:15;26.60;99.20
3564;DHT22;1796;52.388;13.096;2023-07-13T15:13:42;26.60;98.80
3564;DHT22;1796;52.388;13.096;2023-07-13T15:16:15;26.40;98.70
3564;DHT22;1796;52.388;13.096;2023-07-13T15:18:44;26.40;99.00
3564;DHT22;1796;52.388;13.096;2023-07-13T15:21:14;26.40;99.30
3564;DHT22;1796;52.388;13.096;2023-07-13T15:23:43;26.40;99.40
3564;DHT22;1796;52.388;13.096;2023-07-13T15:26:13;26.30;99.20
3564;DHT22;1796;52.388;13.096;2023-07-13T15:28:41;26.20;99.10
3564;DHT22;1796;52.388;13.096;2023-07-13T15:31:19;26.20;99.50
3564;DHT22;1796;52.388;13.096;2023-07-13T15:33:47;26.30;99.30
3564;DHT22;1796;52.388;13.096;2023-07-13T15:36:15;26.30;99.10
3564;DHT22;1796;52.388;13.096;2023-07-13T15:38:43;26.30;99.30
3564;DHT22;1796;52.388;13.096;2023-07-13T15:41:18;26.30;99.50
3564;DHT22;1796;52.388;13.096;2023-07-13T15:43:48;26.20;99.70
3564;DHT22;1796;52.388;13.096;2023-07-13T15:46:17;25.90;98.60
3564;DHT22;1796;52.388;13.096;2023-07-13T15:48:45;25.80;98.80
3564;DHT22;1796;52.388;13.096;2023-07-13T15:51:18;25.90;98.90
3564;DHT22;1796;52.388;13.096;2023-07-13T15:53:45;25.90;98.60
3564;DHT22;1796;52.388;13.096;2023-07-13T15:56:20;26.00;98.40
3564;DHT22;1796;52.388;13.096;2023-07-13T15:58:48;26.10;97.70
3564;DHT22;1796;52.388;13.096;2023-07-13T16:01:15;26.00;97.60